Airport View

Enter AWOS ICAO identifier for current METAR.

ex. KFNL

KSBO 270010Z AUTO 00000KT 10SM OVC080 12/02 A3003 RMK AO2

27 Jan 2020 00:45

Frequency: 133.375

Phone: 478-237-8437

Other Area AWOS: K2J3 - KVDI - KDBN - KOKZ

TAF KAGS 262320Z 2700/2724 VRB03KT P6SM BKN080 OVC150 FM270800 VRB04KT P6SM VCSH SCT025 BKN050 OVC120 FM271400 26008KT P6SM SCT035 BKN060 OVC120 FM271800 27009G17KT P6SM BKN035